YCXA weather

Cooloola Village Airpark
Queensland, Australia

Public forecast

Using degrees Celsius for public forecast. Weather courtesy of forecast.io.

METAR (pilot weather report)

Closest report is Kingaroy Airport, 72.2 nm (133.8 km) WSW. Retrieved 2019/02/20 11:00 UTC (18 minutes ago):

YKRY 201100Z AUTO 09002KT 9999 // NCD 26/16 Q1008

TAF (pilot weather forecast)

Forecast is more than 12 hours old.

Closest forecast is Brisbane International Airport, 84.8 nm (157.1 km) S. Retrieved 2019/02/19 18:35 UTC (17 hours ago):

TAF YBBN 191704Z 1918/2024 20005KT 9999 SCT018 FM192300 14010KT 9999 SCT030 FM200200 10014KT CAVOK FM200900 13008KT 9999 SCT018 FM201500 20008KT 9999 SCT018 FM202200 15016KT 9999 SCT020